createdAt,value
2019-02-03T00:00:57.343Z,21.10
2019-02-03T00:03:25.771Z,18.13
2019-02-03T00:05:54.243Z,19.97
2019-02-03T00:08:22.685Z,18.17
2019-02-03T00:10:51.096Z,17.97
2019-02-03T00:13:19.554Z,17.00
2019-02-03T00:15:48.562Z,17.97
2019-02-03T00:18:16.974Z,16.13
2019-02-03T00:20:45.611Z,18.50
2019-02-03T00:23:14.273Z,15.63
2019-02-03T00:25:42.939Z,20.53
2019-02-03T00:28:11.646Z,18.70
2019-02-03T00:30:40.463Z,16.17
2019-02-03T00:33:09.111Z,18.57
2019-02-03T00:35:37.574Z,14.80
2019-02-03T00:38:05.977Z,20.73
2019-02-03T00:40:34.436Z,19.70
2019-02-03T00:43:03.133Z,19.73
2019-02-03T00:45:31.618Z,16.97
2019-02-03T00:48:00.170Z,15.23
2019-02-03T00:50:28.861Z,16.77
2019-02-03T00:52:57.502Z,13.80
2019-02-03T00:55:25.945Z,15.87
2019-02-03T00:57:54.679Z,16.23
2019-02-03T01:00:23.142Z,12.17
2019-02-03T01:02:51.592Z,14.73
2019-02-03T01:05:20.539Z,13.57
2019-02-03T01:07:49.243Z,13.03
2019-02-03T01:10:19.884Z,12.43
2019-02-03T01:12:50.491Z,16.10
2019-02-03T01:15:19.240Z,19.07
2019-02-03T01:17:47.718Z,14.50
2019-02-03T01:20:21.490Z,20.40
2019-02-03T01:22:49.973Z,20.07
2019-02-03T01:25:18.646Z,26.37
2019-02-03T01:27:47.406Z,20.87
2019-02-03T01:30:21.225Z,24.57
2019-02-03T01:32:49.908Z,25.93
2019-02-03T01:35:19.557Z,24.20
2019-02-03T01:37:48.225Z,25.07
2019-02-03T01:40:20.335Z,23.50
2019-02-03T01:42:49.098Z,24.90
2019-02-03T01:45:22.105Z,23.47
2019-02-03T01:47:50.526Z,24.90
2019-02-03T01:50:18.954Z,25.63
2019-02-03T01:52:47.502Z,25.97
2019-02-03T01:55:21.241Z,32.57
2019-02-03T01:57:49.703Z,27.53
2019-02-03T02:00:21.220Z,24.20
2019-02-03T02:02:50.441Z,25.57
2019-02-03T02:05:19.488Z,29.10
2019-02-03T02:07:51.563Z,34.23
2019-02-03T02:10:20.802Z,28.40
2019-02-03T02:12:49.377Z,30.93
2019-02-03T02:15:21.789Z,30.93
2019-02-03T02:17:51.441Z,31.87
2019-02-03T02:20:28.140Z,33.30
2019-02-03T02:22:57.230Z,31.27
2019-02-03T02:25:25.780Z,32.03
2019-02-03T02:27:54.198Z,34.13
2019-02-03T02:30:24.860Z,30.17
2019-02-03T02:32:53.444Z,37.30
2019-02-03T02:35:21.885Z,33.10
2019-02-03T02:38:03.968Z,37.43
2019-02-03T02:40:22.427Z,42.03
2019-02-03T02:42:51.267Z,43.83
2019-02-03T02:45:20.238Z,38.33
2019-02-03T02:47:48.927Z,46.50
2019-02-03T02:50:25.885Z,42.20
2019-02-03T02:52:54.385Z,46.33
2019-02-03T02:55:23.086Z,42.93
2019-02-03T02:57:51.946Z,44.47
2019-02-03T03:00:25.195Z,48.50
2019-02-03T03:02:54.002Z,42.57
2019-02-03T03:05:22.907Z,44.00
2019-02-03T03:07:51.535Z,43.40
2019-02-03T03:10:21.054Z,52.83
2019-02-03T03:12:50.035Z,43.07
2019-02-03T03:15:20.257Z,36.27
2019-02-03T03:17:48.934Z,34.23
2019-02-03T03:20:19.602Z,47.43
2019-02-03T03:22:48.469Z,43.20
2019-02-03T03:25:19.621Z,44.27
2019-02-03T03:27:48.350Z,45.67
2019-02-03T03:30:21.909Z,47.70
2019-02-03T03:32:50.434Z,36.33
2019-02-03T03:35:18.937Z,50.73
2019-02-03T03:37:47.563Z,43.40
2019-02-03T03:40:21.408Z,44.43
2019-02-03T03:42:49.938Z,44.63
2019-02-03T03:45:18.635Z,45.93
2019-02-03T03:47:47.021Z,50.17
2019-02-03T03:50:16.322Z,44.53
2019-02-03T03:52:44.974Z,49.60
2019-02-03T03:55:13.837Z,40.83
2019-02-03T03:57:42.516Z,43.07
2019-02-03T04:00:17.095Z,40.43
2019-02-03T04:02:45.730Z,44.13
2019-02-03T04:05:14.662Z,50.13
2019-02-03T04:07:43.289Z,54.13
2019-02-03T04:10:14.480Z,44.30
2019-02-03T04:12:42.911Z,50.73
2019-02-03T04:15:14.358Z,44.73
2019-02-03T04:17:43.167Z,45.53
2019-02-03T04:20:17.718Z,43.37
2019-02-03T04:22:46.512Z,41.70
2019-02-03T04:25:15.062Z,39.53
2019-02-03T04:27:43.501Z,46.00
2019-02-03T04:30:15.334Z,47.73
2019-02-03T04:32:43.964Z,42.80
2019-02-03T04:35:12.457Z,34.80
2019-02-03T04:37:40.916Z,40.37
2019-02-03T04:40:15.129Z,38.87
2019-02-03T04:42:43.658Z,42.77
2019-02-03T04:45:14.388Z,41.57
2019-02-03T04:47:43.111Z,40.53
2019-02-03T04:50:13.984Z,35.27
2019-02-03T04:52:42.614Z,35.67
2019-02-03T04:55:13.897Z,35.37
2019-02-03T04:57:42.351Z,36.93
2019-02-03T05:00:16.596Z,32.70
2019-02-03T05:02:45.384Z,35.20
2019-02-03T05:05:14.313Z,33.57
2019-02-03T05:07:42.709Z,41.10
2019-02-03T05:10:13.726Z,44.03
2019-02-03T05:12:42.518Z,31.97
2019-02-03T05:15:17.414Z,39.30
2019-02-03T05:17:46.232Z,38.13
2019-02-03T05:20:17.961Z,34.37
2019-02-03T05:22:47.137Z,43.60
2019-02-03T05:25:15.811Z,35.47
2019-02-03T05:27:44.651Z,36.20
2019-02-03T05:30:27.378Z,34.50
2019-02-03T05:32:55.816Z,35.80
2019-02-03T05:35:24.342Z,29.20
2019-02-03T05:37:52.777Z,34.93
2019-02-03T05:40:21.171Z,30.20
2019-02-03T05:42:49.574Z,32.83
2019-02-03T05:45:22.569Z,33.83
2019-02-03T05:47:51.335Z,34.13
2019-02-03T05:50:23.195Z,32.47
2019-02-03T05:52:51.747Z,27.37
2019-02-03T05:55:20.611Z,37.40
2019-02-03T05:57:49.263Z,33.40
2019-02-03T06:00:24.671Z,28.17
2019-02-03T06:02:53.073Z,27.57
2019-02-03T06:05:21.693Z,26.03
2019-02-03T06:07:50.791Z,28.30
2019-02-03T06:10:19.423Z,27.43
2019-02-03T06:12:47.901Z,29.90
2019-02-03T06:15:16.942Z,30.37
2019-02-03T06:17:45.346Z,26.10
2019-02-03T06:20:16.827Z,24.47
2019-02-03T06:22:46.202Z,27.07
2019-02-03T06:25:15.161Z,25.97
2019-02-03T06:27:44.009Z,26.20
2019-02-03T06:30:21.316Z,26.27
2019-02-03T06:32:49.983Z,27.67
2019-02-03T06:35:18.619Z,27.40
2019-02-03T06:37:47.226Z,36.30
2019-02-03T06:40:15.695Z,26.43
2019-02-03T06:42:44.335Z,28.87
2019-02-03T06:45:30.411Z,27.47
2019-02-03T06:47:59.566Z,30.13
2019-02-03T06:50:27.989Z,24.70
2019-02-03T06:52:57.130Z,24.53
2019-02-03T06:55:25.810Z,23.70
2019-02-03T06:57:54.201Z,25.93
2019-02-03T07:00:22.862Z,20.80
2019-02-03T07:02:51.485Z,23.23
2019-02-03T07:05:19.890Z,26.20
2019-02-03T07:07:48.824Z,26.53
2019-02-03T07:10:17.895Z,26.40
2019-02-03T07:12:46.429Z,24.90
2019-02-03T07:15:15.029Z,28.03
2019-02-03T07:17:43.448Z,29.20
2019-02-03T07:20:18.696Z,27.70
2019-02-03T07:22:47.460Z,27.17
2019-02-03T07:25:15.912Z,25.97
2019-02-03T07:27:44.310Z,24.40
2019-02-03T07:30:25.429Z,26.43
2019-02-03T07:32:54.119Z,21.60
2019-02-03T07:35:22.751Z,28.77
2019-02-03T07:37:51.261Z,25.70
2019-02-03T07:40:21.229Z,26.73
2019-02-03T07:42:49.704Z,24.03
2019-02-03T07:45:18.283Z,27.47
2019-02-03T07:47:47.579Z,29.17
2019-02-03T07:50:16.913Z,32.10
2019-02-03T07:52:46.162Z,23.47
2019-02-03T07:55:15.302Z,30.57
2019-02-03T07:57:43.889Z,33.17
2019-02-03T08:00:17.464Z,33.30
2019-02-03T08:02:45.858Z,27.47
2019-02-03T08:05:14.577Z,31.70
2019-02-03T08:07:43.020Z,35.83
2019-02-03T08:10:25.776Z,33.90
2019-02-03T08:12:49.494Z,32.20
2019-02-03T08:15:19.101Z,33.00
2019-02-03T08:17:47.806Z,31.70
2019-02-03T08:20:30.663Z,31.30
2019-02-03T08:22:59.048Z,31.63
2019-02-03T08:25:28.186Z,31.40
2019-02-03T08:27:56.781Z,29.50
2019-02-03T08:30:30.164Z,31.93
2019-02-03T08:32:58.804Z,31.77
2019-02-03T08:35:27.399Z,35.00
2019-02-03T08:37:56.049Z,30.90
2019-02-03T08:40:36.783Z,33.90
2019-02-03T08:42:56.737Z,34.43
2019-02-03T08:45:25.924Z,37.53
2019-02-03T08:47:54.571Z,30.80
2019-02-03T08:50:24.007Z,32.20
2019-02-03T08:52:52.486Z,34.63
2019-02-03T08:55:21.122Z,33.30
2019-02-03T08:57:49.792Z,34.13
2019-02-03T09:00:34.615Z,36.90
2019-02-03T09:03:03.041Z,35.70
2019-02-03T09:05:32.156Z,34.23
2019-02-03T09:08:00.578Z,32.97
2019-02-03T09:10:29.333Z,50.27
2019-02-03T09:12:57.757Z,36.93
2019-02-03T09:15:27.377Z,40.10
2019-02-03T09:17:56.008Z,37.50
2019-02-03T09:20:30.014Z,36.40
2019-02-03T09:22:58.665Z,32.90
2019-02-03T09:25:27.356Z,38.47
2019-02-03T09:27:56.008Z,38.33
2019-02-03T09:30:35.329Z,36.07
2019-02-03T09:33:05.075Z,39.17
2019-02-03T09:35:34.104Z,37.97
2019-02-03T09:38:02.510Z,34.20
2019-02-03T09:40:33.239Z,35.60
2019-02-03T09:43:02.236Z,42.87
2019-02-03T09:45:30.923Z,38.73
2019-02-03T09:48:00.746Z,33.60
2019-02-03T09:50:31.141Z,34.20
2019-02-03T09:53:01.534Z,36.80
2019-02-03T09:55:31.150Z,29.27
2019-02-03T09:58:00.604Z,29.40
2019-02-03T10:00:36.082Z,39.73
2019-02-03T10:03:09.228Z,31.83
2019-02-03T10:05:37.640Z,30.30
2019-02-03T10:08:06.499Z,34.63
2019-02-03T10:10:39.512Z,35.33
2019-02-03T10:13:08.346Z,33.03
2019-02-03T10:15:37.031Z,36.40
2019-02-03T10:18:08.194Z,31.93
2019-02-03T10:20:36.607Z,30.47
2019-02-03T10:23:05.563Z,40.13
2019-02-03T10:25:35.408Z,35.60
2019-02-03T10:28:04.464Z,33.20
2019-02-03T10:30:32.877Z,32.70
2019-02-03T10:33:01.517Z,35.13
2019-02-03T10:35:32.007Z,38.20
2019-02-03T10:38:01.006Z,40.73
2019-02-03T10:40:38.332Z,37.63
2019-02-03T10:43:07.365Z,40.30
2019-02-03T10:45:35.833Z,35.60
2019-02-03T10:48:05.124Z,34.47
2019-02-03T10:50:38.237Z,32.57
2019-02-03T10:53:09.337Z,31.47
2019-02-03T10:55:38.166Z,34.90
2019-02-03T10:58:07.197Z,38.00
2019-02-03T11:00:41.350Z,37.13
2019-02-03T11:03:11.015Z,36.20
2019-02-03T11:05:42.770Z,35.67
2019-02-03T11:08:12.607Z,37.90
2019-02-03T11:10:41.485Z,38.20
2019-02-03T11:13:09.942Z,38.03
2019-02-03T11:15:38.615Z,34.90
2019-02-03T11:18:07.420Z,31.60
2019-02-03T11:20:36.250Z,34.47
2019-02-03T11:23:05.237Z,39.70
2019-02-03T11:25:33.869Z,38.57
2019-02-03T11:28:02.651Z,38.00
2019-02-03T11:30:31.550Z,37.07
2019-02-03T11:33:06.160Z,37.53
2019-02-03T11:35:32.211Z,34.20
2019-02-03T11:38:00.812Z,32.07
2019-02-03T11:40:36.963Z,36.83
2019-02-03T11:43:06.272Z,36.10
2019-02-03T11:45:38.430Z,32.53
2019-02-03T11:48:13.229Z,31.00
2019-02-03T11:50:43.618Z,34.80
2019-02-03T11:53:14.157Z,34.57
2019-02-03T11:55:43.025Z,28.30
2019-02-03T11:58:12.357Z,32.77
2019-02-03T12:00:40.931Z,33.30
2019-02-03T12:03:09.867Z,29.07
2019-02-03T12:05:38.920Z,33.90
2019-02-03T12:08:08.362Z,30.40
2019-02-03T12:10:37.244Z,31.20
2019-02-03T12:13:06.880Z,26.77
2019-02-03T12:15:36.400Z,31.47
2019-02-03T12:18:06.001Z,27.43
2019-02-03T12:20:34.445Z,24.20
2019-02-03T12:23:02.934Z,24.43
2019-02-03T12:25:34.301Z,26.47
2019-02-03T12:28:04.312Z,28.20
2019-02-03T12:30:33.652Z,27.13
2019-02-03T12:33:03.318Z,29.33
2019-02-03T12:35:31.982Z,24.03
2019-02-03T12:38:00.511Z,23.97
2019-02-03T12:40:32.001Z,27.00
2019-02-03T12:43:00.734Z,22.37
2019-02-03T12:45:29.797Z,23.03
2019-02-03T12:47:58.627Z,21.50
2019-02-03T12:50:27.121Z,22.03
2019-02-03T12:52:55.570Z,23.77
2019-02-03T12:55:27.240Z,19.00
2019-02-03T12:57:55.974Z,23.23
2019-02-03T13:00:32.471Z,25.60
2019-02-03T13:03:01.194Z,23.67
2019-02-03T13:05:30.051Z,19.00
2019-02-03T13:07:59.892Z,18.00
2019-02-03T13:10:34.150Z,24.73
2019-02-03T13:13:02.552Z,21.20
2019-02-03T13:15:48.320Z,14.77
2019-02-03T13:18:16.796Z,18.13
2019-02-03T13:20:45.669Z,17.77
2019-02-03T13:23:14.518Z,15.37
2019-02-03T13:25:43.257Z,19.27
2019-02-03T13:28:11.829Z,15.30
2019-02-03T13:30:42.866Z,16.80
2019-02-03T13:33:11.514Z,13.37
2019-02-03T13:35:40.027Z,16.47
2019-02-03T13:38:09.069Z,15.30
2019-02-03T13:40:37.566Z,14.07
2019-02-03T13:43:06.147Z,14.60
2019-02-03T13:45:34.638Z,11.67
2019-02-03T13:48:03.173Z,12.20
2019-02-03T13:50:31.978Z,11.93
2019-02-03T13:53:00.394Z,10.30
2019-02-03T13:55:29.189Z,16.03
2019-02-03T13:57:57.661Z,11.37
2019-02-03T14:00:29.322Z,9.27
2019-02-03T14:02:58.004Z,10.10
2019-02-03T14:05:26.721Z,8.37
2019-02-03T14:07:55.318Z,12.03
2019-02-03T14:10:29.278Z,16.27
2019-02-03T14:12:58.648Z,6.87
2019-02-03T14:15:27.696Z,9.73
2019-02-03T14:17:56.466Z,13.03
2019-02-03T14:20:26.630Z,9.97
2019-02-03T14:22:56.756Z,7.00
2019-02-03T14:25:25.942Z,7.00
2019-02-03T14:27:55.131Z,7.57
2019-02-03T14:30:26.164Z,9.40
2019-02-03T14:32:58.292Z,9.77
2019-02-03T14:35:25.375Z,11.03
2019-02-03T14:37:54.069Z,8.70
2019-02-03T14:40:23.815Z,6.83
2019-02-03T14:43:01.086Z,8.33
2019-02-03T14:45:24.582Z,6.53
2019-02-03T14:47:53.151Z,6.43
2019-02-03T14:50:25.496Z,8.87
2019-02-03T14:52:56.815Z,7.70
2019-02-03T14:55:31.239Z,6.67
2019-02-03T14:57:59.929Z,8.20
2019-02-03T15:00:30.626Z,10.67
2019-02-03T15:03:00.178Z,8.40
2019-02-03T15:05:29.024Z,8.10
2019-02-03T15:07:57.715Z,7.90
2019-02-03T15:10:26.259Z,8.03
2019-02-03T15:12:54.736Z,4.83
2019-02-03T15:15:26.030Z,8.17
2019-02-03T15:17:54.905Z,7.33
2019-02-03T15:20:24.853Z,11.03
2019-02-03T15:22:53.904Z,7.13
2019-02-03T15:25:23.376Z,5.07
2019-02-03T15:27:51.986Z,5.70
2019-02-03T15:30:23.514Z,9.83
2019-02-03T15:32:51.985Z,6.97
2019-02-03T15:35:20.696Z,5.67
2019-02-03T15:37:49.214Z,5.20
2019-02-03T15:40:20.924Z,6.87
2019-02-03T15:42:49.580Z,5.90
2019-02-03T15:45:20.544Z,10.07
2019-02-03T15:47:49.210Z,8.53
2019-02-03T15:50:21.670Z,5.80
2019-02-03T15:52:50.818Z,5.60
2019-02-03T15:55:22.333Z,5.30
2019-02-03T15:57:51.623Z,6.17
2019-02-03T16:00:30.224Z,6.07
2019-02-03T16:02:58.693Z,7.33
2019-02-03T16:05:27.614Z,6.57
2019-02-03T16:07:56.050Z,11.00
2019-02-03T16:10:26.488Z,4.80
2019-02-03T16:12:54.947Z,4.80
2019-02-03T16:15:23.598Z,3.50
2019-02-03T16:17:52.457Z,4.57
2019-02-03T16:20:30.969Z,5.17
2019-02-03T16:23:00.662Z,4.50
2019-02-03T16:25:29.442Z,3.97
2019-02-03T16:27:58.101Z,9.67
2019-02-03T16:30:32.473Z,6.00
2019-02-03T16:33:01.309Z,5.77
2019-02-03T16:35:30.259Z,4.40
2019-02-03T16:37:59.009Z,7.80
2019-02-03T16:40:32.081Z,4.10
2019-02-03T16:43:00.711Z,4.73
2019-02-03T16:45:29.621Z,5.40
2019-02-03T16:47:58.282Z,11.40
2019-02-03T16:50:29.110Z,8.13
2019-02-03T16:52:58.517Z,8.97
2019-02-03T16:55:27.152Z,5.77
2019-02-03T16:57:56.496Z,5.87
2019-02-03T17:00:27.648Z,9.97
2019-02-03T17:02:57.364Z,4.80
2019-02-03T17:05:27.893Z,5.43
2019-02-03T17:07:57.035Z,6.43
2019-02-03T17:10:26.380Z,5.53
2019-02-03T17:12:55.238Z,8.10
2019-02-03T17:15:44.870Z,6.40
2019-02-03T17:18:14.102Z,6.73
2019-02-03T17:20:42.900Z,6.47
2019-02-03T17:23:12.506Z,8.17
2019-02-03T17:25:50.317Z,6.53
2019-02-03T17:28:19.497Z,7.77
2019-02-03T17:30:48.088Z,5.57
2019-02-03T17:33:17.034Z,15.13
2019-02-03T17:35:54.004Z,5.00
2019-02-03T17:38:16.127Z,5.60
2019-02-03T17:40:44.607Z,4.73
2019-02-03T17:43:13.027Z,6.10
2019-02-03T17:45:41.728Z,6.67
2019-02-03T17:48:10.563Z,6.17
2019-02-03T17:50:39.190Z,4.70
2019-02-03T17:53:07.997Z,7.53
2019-02-03T17:55:36.510Z,7.80
2019-02-03T17:58:05.165Z,5.50
2019-02-03T18:00:44.373Z,8.03
2019-02-03T18:03:12.843Z,6.63
2019-02-03T18:05:41.463Z,6.03
2019-02-03T18:08:11.001Z,6.73
2019-02-03T18:10:39.391Z,8.30
2019-02-03T18:13:08.260Z,6.50
2019-02-03T18:15:37.025Z,5.90
2019-02-03T18:18:07.308Z,6.27
2019-02-03T18:20:36.084Z,4.57
2019-02-03T18:23:05.555Z,9.73
2019-02-03T18:25:34.031Z,6.80
2019-02-03T18:28:02.419Z,4.57
2019-02-03T18:30:32.413Z,6.30
2019-02-03T18:33:01.534Z,7.13
2019-02-03T18:35:30.096Z,7.00
2019-02-03T18:38:01.704Z,7.70
2019-02-03T18:40:30.185Z,7.47
2019-02-03T18:43:01.703Z,5.30
2019-02-03T18:45:29.334Z,5.50
2019-02-03T18:47:58.018Z,8.90
2019-02-03T18:50:26.705Z,5.30
2019-02-03T18:52:56.373Z,6.97
2019-02-03T18:55:28.990Z,6.03
2019-02-03T18:57:57.748Z,4.90
2019-02-03T19:00:28.701Z,4.17
2019-02-03T19:02:57.421Z,5.30
2019-02-03T19:05:29.093Z,8.53
2019-02-03T19:07:57.740Z,5.80
2019-02-03T19:10:27.450Z,4.80
2019-02-03T19:12:55.835Z,7.13
2019-02-03T19:15:26.166Z,7.47
2019-02-03T19:17:54.877Z,7.17
2019-02-03T19:20:28.765Z,6.10
2019-02-03T19:22:57.644Z,8.37
2019-02-03T19:25:26.800Z,5.40
2019-02-03T19:27:55.593Z,6.90
2019-02-03T19:30:25.899Z,6.10
2019-02-03T19:32:54.650Z,6.97
2019-02-03T19:35:31.598Z,6.07
2019-02-03T19:38:01.825Z,5.47
2019-02-03T19:40:34.161Z,8.10
2019-02-03T19:43:03.140Z,8.50
2019-02-03T19:45:32.870Z,6.83
2019-02-03T19:48:01.514Z,8.57
2019-02-03T19:50:38.244Z,9.20
2019-02-03T19:53:08.538Z,7.70
2019-02-03T19:55:37.380Z,6.13
2019-02-03T19:58:07.175Z,8.93
2019-02-03T20:00:41.509Z,6.70
2019-02-03T20:03:10.694Z,7.00
2019-02-03T20:05:42.646Z,13.80
2019-02-03T20:08:10.793Z,6.40
2019-02-03T20:10:39.309Z,5.03
2019-02-03T20:13:08.364Z,6.30
2019-02-03T20:15:37.079Z,9.10
2019-02-03T20:18:05.750Z,5.87
2019-02-03T20:20:36.668Z,7.90
2019-02-03T20:23:06.648Z,6.73
2019-02-03T20:25:35.868Z,12.47
2019-02-03T20:28:05.737Z,7.10
2019-02-03T20:30:38.467Z,5.20
2019-02-03T20:33:05.078Z,9.13
2019-02-03T20:35:33.814Z,8.47
2019-02-03T20:38:02.496Z,7.83
2019-02-03T20:40:34.114Z,9.70
2019-02-03T20:43:02.911Z,10.77
2019-02-03T20:45:31.743Z,9.40
2019-02-03T20:48:00.256Z,8.10
2019-02-03T20:50:29.012Z,12.93
2019-02-03T20:52:58.620Z,10.10
2019-02-03T20:55:27.509Z,8.40
2019-02-03T20:57:56.358Z,10.00
2019-02-03T21:00:30.099Z,11.73
2019-02-03T21:02:58.832Z,9.13
2019-02-03T21:05:27.700Z,13.80
2019-02-03T21:07:56.196Z,10.03
2019-02-03T21:10:25.984Z,11.00
2019-02-03T21:12:54.962Z,9.53
2019-02-03T21:15:32.957Z,10.93
2019-02-03T21:17:56.245Z,11.60
2019-02-03T21:20:27.331Z,10.93
2019-02-03T21:22:55.812Z,9.77
2019-02-03T21:25:24.455Z,15.73
2019-02-03T21:27:53.269Z,13.83
2019-02-03T21:30:27.585Z,9.30
2019-02-03T21:32:56.595Z,8.60
2019-02-03T21:35:25.148Z,10.47
2019-02-03T21:37:53.836Z,12.67
2019-02-03T21:40:28.199Z,11.40
2019-02-03T21:42:56.841Z,10.53
2019-02-03T21:45:25.596Z,20.73
2019-02-03T21:47:54.407Z,9.40
2019-02-03T21:50:28.310Z,19.40
2019-02-03T21:52:57.332Z,14.10
2019-02-03T21:55:26.412Z,10.17
2019-02-03T21:57:55.400Z,14.77
2019-02-03T22:00:32.109Z,10.50
2019-02-03T22:03:01.286Z,11.07
2019-02-03T22:05:30.538Z,13.10
2019-02-03T22:07:59.386Z,8.13
2019-02-03T22:10:32.655Z,12.27
2019-02-03T22:13:03.063Z,10.87
2019-02-03T22:15:32.085Z,12.93
2019-02-03T22:18:01.490Z,10.00
2019-02-03T22:20:30.292Z,16.50
2019-02-03T22:22:58.816Z,11.20
2019-02-03T22:25:27.214Z,11.00
2019-02-03T22:27:55.917Z,11.67
2019-02-03T22:30:27.346Z,12.00
2019-02-03T22:32:55.817Z,12.00
2019-02-03T22:35:24.218Z,20.37
2019-02-03T22:37:52.735Z,58.07
2019-02-03T22:40:21.877Z,16.17
2019-02-03T22:42:50.364Z,9.40
2019-02-03T22:45:21.004Z,12.63
2019-02-03T22:47:49.762Z,18.03
2019-02-03T22:50:28.841Z,10.90
2019-02-03T22:52:57.704Z,8.93
2019-02-03T22:55:26.243Z,10.53
2019-02-03T22:57:55.633Z,14.90
2019-02-03T23:00:46.976Z,14.43
2019-02-03T23:03:16.206Z,11.13
2019-02-03T23:05:45.317Z,9.23
2019-02-03T23:08:13.854Z,10.43
2019-02-03T23:10:42.777Z,8.47
2019-02-03T23:13:11.372Z,10.27
2019-02-03T23:15:40.037Z,14.70
2019-02-03T23:18:08.977Z,11.60
2019-02-03T23:20:37.403Z,8.67
2019-02-03T23:23:06.118Z,12.30
2019-02-03T23:25:35.223Z,9.80
2019-02-03T23:28:03.988Z,15.03
2019-02-03T23:30:32.684Z,10.13
2019-02-03T23:33:01.560Z,10.00
2019-02-03T23:35:30.317Z,12.93
2019-02-03T23:37:58.987Z,15.43
2019-02-03T23:40:27.683Z,9.70
2019-02-03T23:42:58.676Z,10.57
2019-02-03T23:45:26.492Z,10.13
2019-02-03T23:47:55.024Z,14.70
2019-02-03T23:50:23.501Z,13.73
2019-02-03T23:52:52.158Z,16.93
2019-02-03T23:55:20.847Z,13.03
2019-02-03T23:57:49.266Z,11.60
